createdAt,value
2023-03-26T00:01:29.839Z,5.70
2023-03-26T00:06:39.162Z,5.20
2023-03-26T00:11:48.329Z,5.00
2023-03-26T00:16:51.449Z,5.30
2023-03-26T00:21:54.495Z,5.10
2023-03-26T00:26:57.513Z,5.40
2023-03-26T00:32:00.526Z,5.10
2023-03-26T00:37:03.550Z,5.70
2023-03-26T00:42:06.986Z,6.40
2023-03-26T00:47:09.973Z,6.00
2023-03-26T00:52:14.301Z,5.90
2023-03-26T00:57:25.803Z,5.60
2023-03-26T01:02:36.026Z,5.40
2023-03-26T01:07:39.101Z,6.10
2023-03-26T01:12:42.333Z,5.50
2023-03-26T01:17:45.490Z,5.80
2023-03-26T01:22:52.431Z,5.70
2023-03-26T01:27:56.980Z,5.60
2023-03-26T01:33:22.101Z,5.70
2023-03-26T01:38:53.079Z,4.80
2023-03-26T01:44:36.399Z,5.40
2023-03-26T01:49:39.420Z,5.40
2023-03-26T01:54:43.143Z,4.40
2023-03-26T02:05:28.677Z,3.80
2023-03-26T02:10:47.538Z,3.90
2023-03-26T02:16:03.542Z,4.40
2023-03-26T02:21:20.510Z,4.10
2023-03-26T02:26:24.781Z,4.20
2023-03-26T02:31:28.409Z,3.50
2023-03-26T02:41:34.761Z,3.80
2023-03-26T02:46:37.736Z,4.10
2023-03-26T02:51:40.866Z,3.40
2023-03-26T02:56:43.876Z,3.70
2023-03-26T03:01:46.828Z,3.90
2023-03-26T03:06:53.129Z,3.50
2023-03-26T03:11:56.356Z,3.60
2023-03-26T03:16:59.337Z,3.10
2023-03-26T03:22:02.391Z,3.40
2023-03-26T03:27:05.682Z,3.40
2023-03-26T03:32:08.686Z,3.80
2023-03-26T03:37:12.124Z,4.10
2023-03-26T03:42:15.078Z,3.50
2023-03-26T03:47:18.020Z,3.70
2023-03-26T03:52:21.022Z,3.20
2023-03-26T03:57:24.279Z,3.20
2023-03-26T04:02:30.467Z,3.50
2023-03-26T04:07:33.672Z,3.70
2023-03-26T04:12:36.611Z,3.20
2023-03-26T04:17:42.763Z,3.60
2023-03-26T04:22:45.952Z,3.30
2023-03-26T04:27:49.166Z,3.60
2023-03-26T04:32:52.215Z,3.30
2023-03-26T04:37:55.228Z,3.20
2023-03-26T04:43:00.031Z,3.30
2023-03-26T04:48:02.997Z,3.20
2023-03-26T04:53:05.984Z,3.80
2023-03-26T04:58:09.568Z,3.80
2023-03-26T05:03:13.190Z,3.50
2023-03-26T05:08:16.182Z,3.80
2023-03-26T05:13:19.189Z,3.40
2023-03-26T05:18:22.180Z,3.80
2023-03-26T05:23:25.152Z,3.50
2023-03-26T05:28:28.368Z,3.40
2023-03-26T05:33:31.400Z,3.20
2023-03-26T05:38:34.492Z,4.50
2023-03-26T05:43:37.497Z,3.10
2023-03-26T05:48:40.577Z,3.10
2023-03-26T05:53:43.784Z,3.30
2023-03-26T05:58:47.673Z,3.90
2023-03-26T06:03:51.660Z,17.60
2023-03-26T06:09:01.831Z,13.60
2023-03-26T06:14:07.138Z,5.30
2023-03-26T06:19:10.153Z,5.20
2023-03-26T06:24:13.180Z,3.60
2023-03-26T06:29:16.359Z,5.00
2023-03-26T06:34:19.517Z,5.00
2023-03-26T06:39:22.552Z,3.40
2023-03-26T06:44:25.762Z,3.20
2023-03-26T06:49:28.932Z,11.60
2023-03-26T06:54:32.097Z,7.00
2023-03-26T06:59:35.109Z,4.70
2023-03-26T07:04:38.297Z,4.30
2023-03-26T07:09:41.232Z,3.60
2023-03-26T07:14:44.347Z,5.10
2023-03-26T07:19:47.274Z,6.20
2023-03-26T07:24:52.114Z,5.00
2023-03-26T07:30:32.725Z,4.00
2023-03-26T07:36:04.577Z,5.10
2023-03-26T07:41:22.456Z,4.20
2023-03-26T07:46:41.641Z,3.80
2023-03-26T07:51:45.021Z,4.40
2023-03-26T07:57:08.222Z,9.20
2023-03-26T08:07:56.444Z,4.30
2023-03-26T08:13:17.874Z,5.10
2023-03-26T08:18:54.362Z,4.80
2023-03-26T08:24:28.370Z,4.50
2023-03-26T08:29:45.414Z,4.90
2023-03-26T08:34:48.478Z,5.40
2023-03-26T08:39:51.680Z,8.60
2023-03-26T08:45:31.561Z,4.40
2023-03-26T08:51:28.679Z,7.00
2023-03-26T08:56:52.818Z,4.80
2023-03-26T09:01:55.798Z,5.50
2023-03-26T09:07:29.370Z,4.60
2023-03-26T09:13:33.694Z,4.70
2023-03-26T09:19:14.811Z,5.50
2023-03-26T09:24:54.620Z,5.00
2023-03-26T09:30:35.228Z,6.70
2023-03-26T09:35:53.414Z,4.80
2023-03-26T09:41:13.578Z,4.10
2023-03-26T09:46:39.003Z,3.50
2023-03-26T09:52:27.289Z,4.10
2023-03-26T09:57:53.974Z,4.00
2023-03-26T10:03:28.070Z,3.60
2023-03-26T10:09:11.684Z,4.10
2023-03-26T10:14:38.645Z,4.40
2023-03-26T10:19:47.537Z,3.20
2023-03-26T10:25:31.142Z,2.10
2023-03-26T10:30:39.486Z,1.90
2023-03-26T10:36:12.452Z,1.70
2023-03-26T10:41:42.620Z,2.60
2023-03-26T10:47:43.928Z,4.70
2023-03-26T10:52:57.530Z,4.10
2023-03-26T10:58:23.726Z,4.10
2023-03-26T11:03:52.196Z,4.00
2023-03-26T11:09:03.014Z,4.70
2023-03-26T11:14:35.646Z,5.30
2023-03-26T11:19:41.062Z,4.70
2023-03-26T11:25:05.651Z,4.40
2023-03-26T11:30:28.764Z,4.20
2023-03-26T11:35:40.563Z,5.50
2023-03-26T11:40:50.885Z,6.70
2023-03-26T11:45:54.224Z,2.20
2023-03-26T11:51:08.178Z,2.90
2023-03-26T11:56:38.076Z,3.10
2023-03-26T12:01:56.605Z,2.70
2023-03-26T12:07:21.238Z,2.80
2023-03-26T12:12:33.115Z,3.30
2023-03-26T12:17:40.241Z,9.80
2023-03-26T12:22:44.320Z,9.40
2023-03-26T12:27:50.972Z,38.90
2023-03-26T12:33:26.251Z,4.30
2023-03-26T12:38:33.163Z,18.10
2023-03-26T12:44:56.032Z,5.30
2023-03-26T12:49:08.974Z,8.70
2023-03-26T12:54:51.372Z,9.80
2023-03-26T13:00:29.169Z,23.00
2023-03-26T13:06:23.318Z,8.40
2023-03-26T13:12:15.614Z,3.70
2023-03-26T13:17:33.667Z,5.80
2023-03-26T13:23:08.832Z,6.40
2023-03-26T13:28:47.155Z,33.50
2023-03-26T13:34:13.556Z,11.70
2023-03-26T13:39:33.955Z,18.70
2023-03-26T13:45:14.490Z,17.00
2023-03-26T13:50:37.434Z,26.40
2023-03-26T13:55:53.522Z,18.60
2023-03-26T14:01:18.711Z,38.60
2023-03-26T14:07:01.647Z,9.30
2023-03-26T14:12:22.169Z,4.40
2023-03-26T14:17:39.040Z,3.80
2023-03-26T14:23:25.016Z,4.80
2023-03-26T14:28:58.753Z,15.10
2023-03-26T14:34:54.194Z,23.10
2023-03-26T14:40:28.989Z,7.20
2023-03-26T14:46:07.723Z,27.20
2023-03-26T14:51:55.871Z,8.10
2023-03-26T14:57:26.498Z,8.30
2023-03-26T15:03:20.625Z,8.40
2023-03-26T15:09:08.026Z,6.00
2023-03-26T15:14:19.951Z,3.10
2023-03-26T15:19:55.128Z,2.80
2023-03-26T15:25:16.527Z,2.20
2023-03-26T15:30:57.988Z,2.50
2023-03-26T15:36:41.378Z,2.80
2023-03-26T15:42:12.021Z,2.50
2023-03-26T15:47:50.043Z,3.10
2023-03-26T15:53:19.604Z,4.70
2023-03-26T15:58:44.368Z,5.30
2023-03-26T16:04:23.072Z,3.40
2023-03-26T16:09:42.120Z,4.30
2023-03-26T16:15:21.297Z,5.40
2023-03-26T16:20:35.963Z,13.40
2023-03-26T16:26:40.093Z,3.40
2023-03-26T16:32:10.944Z,4.40
2023-03-26T16:37:50.113Z,4.80
2023-03-26T16:43:24.364Z,4.50
2023-03-26T16:48:36.964Z,4.80
2023-03-26T16:54:00.699Z,5.20
2023-03-26T17:00:04.952Z,5.20
2023-03-26T17:05:35.138Z,5.80
2023-03-26T17:11:22.860Z,6.90
2023-03-26T17:16:33.406Z,14.70
2023-03-26T17:21:55.620Z,32.50
2023-03-26T17:27:01.060Z,15.10
2023-03-26T17:32:14.985Z,15.30
2023-03-26T17:37:23.944Z,23.00
2023-03-26T17:42:35.955Z,28.60
2023-03-26T17:47:47.944Z,22.70
2023-03-26T17:53:19.984Z,14.50
2023-03-26T17:58:29.178Z,9.90
2023-03-26T18:03:54.040Z,12.60
2023-03-26T18:09:52.857Z,7.10
2023-03-26T18:15:07.220Z,18.70
2023-03-26T18:20:25.211Z,32.60
2023-03-26T18:25:34.358Z,107.10
2023-03-26T18:30:48.103Z,342.70
2023-03-26T18:35:55.616Z,146.10
2023-03-26T18:40:59.084Z,133.80
2023-03-26T18:46:03.740Z,14.10
2023-03-26T18:51:07.887Z,133.40
2023-03-26T18:56:43.231Z,118.20
2023-03-26T19:01:48.723Z,93.60
2023-03-26T19:06:55.221Z,17.10
2023-03-26T19:12:06.072Z,9.30
2023-03-26T19:17:09.180Z,7.20
2023-03-26T19:22:12.431Z,21.60
2023-03-26T19:27:16.808Z,19.60
2023-03-26T19:32:32.478Z,16.40
2023-03-26T19:37:50.291Z,10.50
2023-03-26T19:42:53.326Z,16.80
2023-03-26T19:48:07.745Z,9.00
2023-03-26T19:53:32.626Z,7.80
2023-03-26T19:58:36.396Z,10.50
2023-03-26T20:08:45.031Z,29.30
2023-03-26T20:13:49.336Z,8.60
2023-03-26T20:18:52.517Z,11.10
2023-03-26T20:23:55.861Z,30.50
2023-03-26T20:28:59.006Z,16.60
2023-03-26T20:34:02.230Z,39.00
2023-03-26T20:39:09.675Z,35.40
2023-03-26T20:44:15.766Z,20.10
2023-03-26T20:49:19.310Z,12.60
2023-03-26T20:54:25.323Z,29.50
2023-03-26T20:59:28.981Z,52.40
2023-03-26T21:04:32.282Z,43.50
2023-03-26T21:09:35.862Z,27.30
2023-03-26T21:14:42.107Z,22.20
2023-03-26T21:19:47.249Z,14.60
2023-03-26T21:25:03.135Z,12.20
2023-03-26T21:30:14.527Z,14.80
2023-03-26T21:35:18.342Z,18.20
2023-03-26T21:40:21.578Z,10.80
2023-03-26T21:45:25.079Z,12.10
2023-03-26T21:50:28.601Z,14.80
2023-03-26T21:55:42.032Z,18.50
2023-03-26T22:06:37.628Z,10.50
2023-03-26T22:11:42.167Z,7.90
2023-03-26T22:16:45.254Z,8.90
2023-03-26T22:21:48.209Z,9.00
2023-03-26T22:26:51.175Z,7.10
2023-03-26T22:31:54.291Z,7.10
2023-03-26T22:36:57.400Z,7.60
2023-03-26T22:42:02.618Z,6.30
2023-03-26T22:47:05.579Z,6.70
2023-03-26T22:52:08.627Z,6.80
2023-03-26T22:57:12.087Z,8.40
2023-03-26T23:02:16.720Z,7.70
2023-03-26T23:07:19.755Z,7.50
2023-03-26T23:12:22.986Z,7.60
2023-03-26T23:17:25.971Z,7.40
2023-03-26T23:22:28.974Z,8.20
2023-03-26T23:27:33.042Z,56.40
2023-03-26T23:32:38.086Z,17.80
2023-03-26T23:37:42.638Z,8.80
2023-03-26T23:42:47.516Z,8.20
2023-03-26T23:47:50.516Z,8.10
2023-03-26T23:52:53.704Z,8.20
2023-03-26T23:57:56.613Z,7.70
